createdAt,value
2018-03-01T00:01:36.168Z,51.12
2018-03-01T00:04:04.615Z,51.14
2018-03-01T00:06:33.037Z,51.04
2018-03-01T00:09:01.457Z,50.96
2018-03-01T00:11:30.594Z,51.00
2018-03-01T00:13:59.987Z,50.91
2018-03-01T00:16:28.488Z,50.65
2018-03-01T00:18:56.989Z,50.45
2018-03-01T00:21:25.586Z,50.38
2018-03-01T00:23:54.746Z,50.51
2018-03-01T00:26:23.161Z,50.42
2018-03-01T00:28:51.566Z,50.25
2018-03-01T00:31:20.863Z,50.42
2018-03-01T00:33:49.278Z,50.43
2018-03-01T00:36:17.700Z,50.18
2018-03-01T00:38:46.141Z,50.24
2018-03-01T00:41:16.397Z,50.57
2018-03-01T00:43:44.819Z,50.15
2018-03-01T00:46:13.958Z,50.33
2018-03-01T00:48:42.399Z,50.16
2018-03-01T00:51:11.576Z,50.04
2018-03-01T00:53:39.986Z,49.84
2018-03-01T00:56:09.159Z,49.74
2018-03-01T00:58:37.600Z,49.69
2018-03-01T01:01:06.044Z,49.81
2018-03-01T01:03:35.521Z,49.89
2018-03-01T01:06:03.911Z,49.77
2018-03-01T01:08:32.305Z,49.70
2018-03-01T01:11:00.820Z,49.78
2018-03-01T01:13:29.253Z,49.93
2018-03-01T01:15:57.678Z,49.64
2018-03-01T01:18:26.181Z,49.72
2018-03-01T01:20:54.579Z,49.71
2018-03-01T01:23:22.962Z,50.14
2018-03-01T01:25:51.339Z,49.96
2018-03-01T01:28:19.727Z,49.63
2018-03-01T01:30:48.327Z,49.53
2018-03-01T01:33:16.731Z,49.54
2018-03-01T01:35:45.154Z,49.71
2018-03-01T01:38:13.612Z,49.73
2018-03-01T01:40:42.795Z,49.64
2018-03-01T01:43:11.971Z,49.56
2018-03-01T01:45:40.511Z,49.58
2018-03-01T01:48:09.005Z,49.69
2018-03-01T01:50:55.204Z,49.72
2018-03-01T01:53:23.785Z,49.68
2018-03-01T01:55:52.170Z,49.74
2018-03-01T01:58:20.649Z,49.63
2018-03-01T02:00:49.063Z,49.82
2018-03-01T02:03:17.440Z,49.51
2018-03-01T02:05:46.035Z,49.74
2018-03-01T02:08:14.569Z,49.62
2018-03-01T02:10:42.964Z,49.62
2018-03-01T02:13:11.611Z,49.55
2018-03-01T02:15:41.046Z,49.51
2018-03-01T02:18:09.459Z,49.55
2018-03-01T02:20:37.847Z,49.46
2018-03-01T02:23:06.293Z,49.56
2018-03-01T02:25:34.694Z,49.34
2018-03-01T02:28:03.124Z,49.55
2018-03-01T02:30:31.543Z,49.59
2018-03-01T02:32:59.939Z,49.66
2018-03-01T02:35:28.328Z,49.55
2018-03-01T02:37:56.813Z,49.64
2018-03-01T02:40:25.376Z,49.62
2018-03-01T02:42:53.807Z,49.91
2018-03-01T02:45:23.089Z,49.97
2018-03-01T02:47:51.482Z,49.88
2018-03-01T02:50:19.860Z,50.21
2018-03-01T02:52:49.071Z,49.97
2018-03-01T02:55:17.456Z,49.85
2018-03-01T02:57:46.602Z,50.10
2018-03-01T03:00:15.037Z,50.29
2018-03-01T03:02:44.380Z,50.35
2018-03-01T03:05:12.836Z,50.35
2018-03-01T03:07:42.043Z,50.51
2018-03-01T03:10:11.422Z,50.49
2018-03-01T03:12:39.814Z,50.60
2018-03-01T03:15:09.004Z,50.47
2018-03-01T03:17:37.492Z,50.46
2018-03-01T03:20:06.716Z,50.50
2018-03-01T03:22:35.860Z,50.40
2018-03-01T03:25:05.244Z,50.27
2018-03-01T03:27:33.832Z,50.74
2018-03-01T03:30:02.272Z,50.28
2018-03-01T03:32:31.432Z,50.13
2018-03-01T03:34:59.955Z,50.09
2018-03-01T03:37:29.396Z,50.08
2018-03-01T03:39:57.798Z,49.93
2018-03-01T03:42:26.223Z,50.07
2018-03-01T03:44:55.367Z,49.76
2018-03-01T03:47:23.795Z,50.12
2018-03-01T03:49:52.180Z,50.04
2018-03-01T03:52:20.669Z,49.95
2018-03-01T03:54:49.059Z,50.07
2018-03-01T03:57:18.225Z,50.18
2018-03-01T03:59:46.774Z,50.03
2018-03-01T04:02:15.173Z,49.87
2018-03-01T04:04:43.595Z,49.93
2018-03-01T04:07:11.990Z,49.94
2018-03-01T04:09:41.128Z,50.11
2018-03-01T04:12:09.519Z,50.16
2018-03-01T04:14:37.935Z,50.20
2018-03-01T04:17:07.131Z,50.38
2018-03-01T04:19:35.649Z,50.27
2018-03-01T04:22:04.099Z,50.44
2018-03-01T04:24:33.244Z,50.40
2018-03-01T04:27:01.639Z,50.21
2018-03-01T04:29:30.028Z,50.08
2018-03-01T04:31:58.440Z,50.35
2018-03-01T04:34:26.874Z,50.43
2018-03-01T04:36:55.428Z,50.49
2018-03-01T04:39:24.583Z,50.30
2018-03-01T04:41:52.975Z,50.44
2018-03-01T04:44:21.392Z,50.29
2018-03-01T04:46:49.835Z,50.15
2018-03-01T04:49:18.270Z,49.99
2018-03-01T04:51:46.687Z,50.28
2018-03-01T04:54:15.996Z,50.02
2018-03-01T04:56:44.378Z,50.00
2018-03-01T04:59:12.898Z,50.01
2018-03-01T05:01:42.069Z,50.23
2018-03-01T05:04:10.489Z,49.88
2018-03-01T05:06:38.994Z,50.08
2018-03-01T05:09:07.436Z,49.99
2018-03-01T05:11:36.617Z,49.73
2018-03-01T05:14:05.072Z,50.05
2018-03-01T05:16:33.475Z,50.19
2018-03-01T05:19:01.904Z,49.79
2018-03-01T05:21:30.348Z,50.17
2018-03-01T05:23:58.781Z,50.35
2018-03-01T05:26:27.271Z,50.23
2018-03-01T05:28:55.642Z,50.14
2018-03-01T05:31:24.071Z,50.21
2018-03-01T05:33:52.496Z,50.22
2018-03-01T05:36:20.879Z,50.40
2018-03-01T05:38:49.270Z,50.25
2018-03-01T05:41:17.680Z,50.25
2018-03-01T05:43:46.097Z,50.16
2018-03-01T05:46:15.265Z,49.96
2018-03-01T05:48:43.673Z,50.03
2018-03-01T05:51:12.945Z,49.91
2018-03-01T05:53:41.363Z,49.80
2018-03-01T05:56:10.504Z,49.58
2018-03-01T05:58:39.236Z,49.45
2018-03-01T06:01:07.629Z,49.57
2018-03-01T06:03:36.850Z,49.61
2018-03-01T06:06:05.236Z,49.35
2018-03-01T06:08:33.648Z,49.13
2018-03-01T06:11:02.120Z,49.34
2018-03-01T06:13:30.537Z,49.40
2018-03-01T06:15:58.908Z,48.99
2018-03-01T06:18:27.298Z,49.23
2018-03-01T06:20:55.692Z,49.29
2018-03-01T06:23:24.095Z,49.30
2018-03-01T06:25:53.256Z,49.00
2018-03-01T06:28:21.671Z,49.25
2018-03-01T06:30:51.285Z,49.16
2018-03-01T06:33:21.183Z,49.20
2018-03-01T06:35:49.628Z,49.20
2018-03-01T06:38:18.079Z,49.07
2018-03-01T06:40:47.451Z,49.11
2018-03-01T06:43:15.861Z,49.33
2018-03-01T06:45:44.284Z,49.15
2018-03-01T06:48:12.713Z,48.99
2018-03-01T06:50:41.940Z,48.76
2018-03-01T06:53:10.336Z,48.78
2018-03-01T06:55:39.676Z,48.80
2018-03-01T06:58:08.096Z,48.67
2018-03-01T07:00:36.501Z,48.73
2018-03-01T07:03:05.015Z,48.44
2018-03-01T07:05:33.441Z,48.39
2018-03-01T07:08:01.927Z,48.46
2018-03-01T07:10:31.709Z,48.05
2018-03-01T07:13:00.271Z,47.92
2018-03-01T07:15:28.671Z,47.99
2018-03-01T07:17:57.144Z,47.76
2018-03-01T07:20:25.553Z,47.57
2018-03-01T07:22:54.696Z,47.44
2018-03-01T07:25:23.172Z,47.59
2018-03-01T07:27:51.743Z,47.32
2018-03-01T07:30:20.149Z,47.15
2018-03-01T07:32:48.624Z,47.01
2018-03-01T07:35:17.112Z,46.63
2018-03-01T07:37:45.506Z,46.94
2018-03-01T07:40:13.913Z,46.37
2018-03-01T07:42:43.171Z,46.37
2018-03-01T07:45:11.564Z,46.23
2018-03-01T07:47:39.957Z,45.98
2018-03-01T07:50:08.337Z,46.25
2018-03-01T07:52:36.891Z,45.95
2018-03-01T07:55:05.358Z,45.45
2018-03-01T07:57:33.755Z,45.27
2018-03-01T08:00:02.177Z,45.22
2018-03-01T08:02:31.397Z,44.85
2018-03-01T08:04:59.776Z,44.85
2018-03-01T08:07:28.178Z,45.09
2018-03-01T08:09:57.524Z,45.02
2018-03-01T08:12:25.946Z,44.99
2018-03-01T08:14:55.111Z,44.87
2018-03-01T08:17:23.551Z,44.57
2018-03-01T08:19:51.959Z,44.20
2018-03-01T08:22:20.332Z,44.32
2018-03-01T08:24:48.730Z,44.11
2018-03-01T08:27:17.193Z,43.83
2018-03-01T08:29:45.680Z,43.77
2018-03-01T08:32:14.094Z,43.83
2018-03-01T08:34:42.535Z,43.33
2018-03-01T08:37:11.021Z,43.30
2018-03-01T08:39:39.455Z,43.23
2018-03-01T08:42:07.831Z,42.20
2018-03-01T08:44:36.235Z,42.18
2018-03-01T08:47:05.384Z,41.73
2018-03-01T08:49:33.766Z,41.30
2018-03-01T08:52:02.185Z,40.53
2018-03-01T08:54:31.331Z,40.03
2018-03-01T08:56:59.723Z,40.03
2018-03-01T08:59:28.135Z,39.96
2018-03-01T09:01:56.565Z,40.44
2018-03-01T09:04:24.993Z,39.99
2018-03-01T09:06:53.404Z,40.47
2018-03-01T09:09:21.795Z,40.25
2018-03-01T09:11:50.192Z,39.67
2018-03-01T09:14:18.588Z,39.55
2018-03-01T09:16:47.001Z,39.07
2018-03-01T09:19:16.355Z,38.86
2018-03-01T09:21:44.799Z,37.89
2018-03-01T09:24:13.974Z,37.87
2018-03-01T09:26:42.363Z,37.90
2018-03-01T09:29:10.745Z,37.86
2018-03-01T09:31:39.376Z,37.92
2018-03-01T09:34:07.851Z,37.76
2018-03-01T09:36:36.234Z,36.94
2018-03-01T09:39:04.700Z,37.33
2018-03-01T09:41:33.203Z,37.08
2018-03-01T09:44:01.632Z,37.55
2018-03-01T09:46:30.027Z,36.60
2018-03-01T09:48:59.400Z,36.13
2018-03-01T09:51:27.807Z,35.86
2018-03-01T09:53:57.185Z,36.29
2018-03-01T09:56:25.587Z,36.63
2018-03-01T09:58:54.749Z,36.48
2018-03-01T10:01:23.506Z,35.88
2018-03-01T10:03:51.899Z,35.60
2018-03-01T10:06:21.078Z,35.00
2018-03-01T10:08:49.500Z,35.01
2018-03-01T10:11:17.925Z,34.21
2018-03-01T10:13:47.076Z,34.28
2018-03-01T10:16:15.553Z,33.15
2018-03-01T10:18:43.954Z,33.12
2018-03-01T10:21:12.490Z,32.80
2018-03-01T10:23:41.051Z,33.52
2018-03-01T10:26:09.556Z,33.56
2018-03-01T10:28:38.696Z,32.79
2018-03-01T10:31:07.115Z,32.35
2018-03-01T10:33:40.844Z,31.18
2018-03-01T10:36:09.227Z,30.79
2018-03-01T10:38:37.618Z,32.09
2018-03-01T10:41:06.088Z,32.01
2018-03-01T10:43:34.475Z,32.33
2018-03-01T10:46:02.976Z,32.58
2018-03-01T10:48:31.444Z,32.88
2018-03-01T10:50:59.912Z,33.20
2018-03-01T10:53:28.344Z,33.38
2018-03-01T10:55:57.566Z,33.10
2018-03-01T10:58:26.708Z,33.18
2018-03-01T11:00:59.995Z,33.07
2018-03-01T11:03:28.376Z,32.15
2018-03-01T11:05:56.893Z,32.36
2018-03-01T11:08:25.415Z,32.55
2018-03-01T11:10:53.934Z,32.20
2018-03-01T11:13:22.393Z,32.34
2018-03-01T11:15:50.795Z,32.11
2018-03-01T11:18:19.234Z,31.73
2018-03-01T11:20:47.859Z,31.71
2018-03-01T11:23:16.266Z,31.12
2018-03-01T11:25:44.663Z,31.54
2018-03-01T11:28:13.804Z,30.47
2018-03-01T11:30:42.246Z,30.56
2018-03-01T11:33:11.359Z,30.52
2018-03-01T11:35:39.771Z,29.32
2018-03-01T11:38:08.242Z,29.34
2018-03-01T11:40:36.688Z,28.92
2018-03-01T11:43:05.907Z,28.67
2018-03-01T11:45:34.349Z,29.22
2018-03-01T11:48:02.749Z,29.34
2018-03-01T11:50:31.141Z,29.54
2018-03-01T11:52:59.563Z,29.21
2018-03-01T11:55:28.006Z,30.19
2018-03-01T11:57:56.452Z,30.32
2018-03-01T12:00:25.664Z,30.79
2018-03-01T12:02:54.884Z,30.13
2018-03-01T12:05:23.276Z,30.17
2018-03-01T12:07:51.657Z,29.72
2018-03-01T12:10:20.049Z,30.47
2018-03-01T12:12:48.479Z,30.35
2018-03-01T12:15:17.739Z,29.97
2018-03-01T12:17:46.256Z,29.84
2018-03-01T12:20:14.739Z,29.86
2018-03-01T12:22:43.116Z,29.67
2018-03-01T12:25:11.505Z,29.61
2018-03-01T12:27:39.893Z,29.19
2018-03-01T12:30:08.304Z,29.55
2018-03-01T12:32:37.690Z,29.60
2018-03-01T12:35:06.929Z,29.48
2018-03-01T12:37:35.324Z,29.92
2018-03-01T12:40:03.696Z,29.82
2018-03-01T12:42:32.072Z,29.20
2018-03-01T12:45:00.425Z,29.48
2018-03-01T12:47:28.812Z,29.88
2018-03-01T12:49:57.359Z,30.05
2018-03-01T12:52:26.287Z,30.02
2018-03-01T12:54:54.808Z,30.01
2018-03-01T12:57:23.294Z,30.41
2018-03-01T12:59:51.753Z,29.98
2018-03-01T13:02:21.277Z,29.79
2018-03-01T13:04:53.157Z,29.73
2018-03-01T13:07:21.671Z,29.19
2018-03-01T13:09:50.815Z,29.42
2018-03-01T13:12:19.296Z,29.06
2018-03-01T13:14:47.928Z,29.50
2018-03-01T13:17:16.402Z,30.06
2018-03-01T13:19:44.859Z,30.08
2018-03-01T13:22:13.445Z,29.99
2018-03-01T13:24:41.952Z,29.70
2018-03-01T13:27:10.483Z,29.82
2018-03-01T13:29:39.459Z,29.61
2018-03-01T13:32:12.208Z,29.69
2018-03-01T13:34:45.300Z,29.90
2018-03-01T13:37:13.811Z,29.58
2018-03-01T13:39:42.269Z,29.39
2018-03-01T13:42:20.558Z,29.10
2018-03-01T13:44:49.908Z,29.24
2018-03-01T13:47:19.064Z,29.33
2018-03-01T13:49:47.483Z,29.28
2018-03-01T13:52:15.858Z,29.22
2018-03-01T13:54:44.316Z,29.51
2018-03-01T13:57:12.733Z,29.42
2018-03-01T13:59:41.568Z,29.88
2018-03-01T14:02:09.986Z,29.88
2018-03-01T14:04:38.410Z,30.05
2018-03-01T14:07:08.466Z,29.95
2018-03-01T14:09:37.035Z,29.59
2018-03-01T14:12:05.422Z,29.81
2018-03-01T14:14:36.109Z,29.56
2018-03-01T14:17:05.040Z,29.71
2018-03-01T14:19:35.320Z,29.51
2018-03-01T14:22:07.360Z,29.97
2018-03-01T14:24:35.887Z,29.55
2018-03-01T14:27:13.436Z,29.44
2018-03-01T14:29:47.353Z,29.72
2018-03-01T14:32:15.829Z,29.81
2018-03-01T14:34:44.242Z,29.94
2018-03-01T14:37:12.848Z,29.48
2018-03-01T14:39:42.002Z,29.95
2018-03-01T14:42:10.578Z,29.77
2018-03-01T14:44:38.988Z,29.96
2018-03-01T14:47:07.523Z,30.15
2018-03-01T14:49:35.964Z,30.31
2018-03-01T14:52:04.356Z,30.80
2018-03-01T14:54:33.605Z,31.00
2018-03-01T14:57:02.132Z,30.85
2018-03-01T14:59:31.567Z,31.00
2018-03-01T15:01:59.967Z,30.93
2018-03-01T15:04:28.425Z,31.13
2018-03-01T15:06:56.930Z,31.09
2018-03-01T15:09:25.599Z,31.17
2018-03-01T15:11:53.996Z,31.19
2018-03-01T15:14:22.444Z,31.38
2018-03-01T15:16:52.391Z,31.03
2018-03-01T15:19:21.556Z,31.21
2018-03-01T15:21:50.288Z,31.31
2018-03-01T15:24:18.718Z,31.30
2018-03-01T15:26:47.200Z,31.30
2018-03-01T15:29:15.689Z,31.20
2018-03-01T15:31:44.091Z,31.21
2018-03-01T15:34:12.498Z,31.28
2018-03-01T15:36:41.663Z,31.68
2018-03-01T15:39:10.227Z,32.12
2018-03-01T15:41:38.647Z,32.27
2018-03-01T15:44:08.011Z,32.32
2018-03-01T15:46:36.396Z,32.48
2018-03-01T15:49:04.804Z,32.86
2018-03-01T15:51:33.958Z,32.89
2018-03-01T15:54:02.385Z,32.93
2018-03-01T15:56:31.567Z,33.25
2018-03-01T15:58:59.992Z,33.56
2018-03-01T16:01:28.450Z,33.50
2018-03-01T16:03:56.852Z,33.52
2018-03-01T16:06:26.111Z,34.01
2018-03-01T16:08:55.366Z,34.08
2018-03-01T16:11:23.757Z,34.22
2018-03-01T16:13:52.157Z,34.31
2018-03-01T16:16:21.232Z,34.45
2018-03-01T16:18:49.893Z,34.54
2018-03-01T16:21:18.339Z,34.45
2018-03-01T16:23:46.913Z,34.76
2018-03-01T16:26:15.587Z,35.20
2018-03-01T16:28:44.106Z,35.10
2018-03-01T16:31:13.342Z,35.27
2018-03-01T16:33:51.701Z,35.49
2018-03-01T16:36:20.368Z,35.80
2018-03-01T16:38:48.784Z,35.73
2018-03-01T16:41:18.131Z,35.84
2018-03-01T16:43:46.519Z,35.94
2018-03-01T16:46:15.565Z,36.11
2018-03-01T16:48:44.723Z,36.17
2018-03-01T16:51:13.271Z,36.39
2018-03-01T16:53:42.560Z,36.51
2018-03-01T16:56:11.695Z,36.35
2018-03-01T16:58:40.156Z,36.60
2018-03-01T17:01:08.584Z,36.69
2018-03-01T17:03:37.008Z,36.78
2018-03-01T17:06:05.403Z,37.09
2018-03-01T17:08:33.807Z,37.18
2018-03-01T17:11:02.222Z,37.29
2018-03-01T17:13:31.566Z,37.62
2018-03-01T17:15:59.995Z,37.96
2018-03-01T17:18:28.412Z,37.92
2018-03-01T17:20:56.815Z,37.85
2018-03-01T17:23:25.822Z,38.06
2018-03-01T17:25:55.077Z,38.13
2018-03-01T17:28:23.583Z,38.10
2018-03-01T17:30:52.110Z,38.26
2018-03-01T17:33:20.608Z,38.31
2018-03-01T17:35:49.804Z,38.70
2018-03-01T17:38:19.112Z,39.00
2018-03-01T17:40:48.333Z,38.92
2018-03-01T17:43:18.013Z,39.12
2018-03-01T17:45:46.603Z,39.27
2018-03-01T17:48:15.800Z,39.20
2018-03-01T17:50:44.289Z,39.47
2018-03-01T17:53:12.767Z,39.40
2018-03-01T17:55:41.992Z,39.53
2018-03-01T17:58:10.485Z,39.44
2018-03-01T18:00:38.909Z,39.58
2018-03-01T18:03:07.347Z,39.85
2018-03-01T18:05:35.844Z,40.43
2018-03-01T18:08:04.252Z,40.18
2018-03-01T18:10:32.644Z,39.97
2018-03-01T18:13:01.034Z,39.89
2018-03-01T18:15:30.193Z,39.98
2018-03-01T18:17:58.610Z,39.95
2018-03-01T18:20:27.852Z,39.95
2018-03-01T18:22:56.310Z,40.10
2018-03-01T18:25:25.713Z,40.18
2018-03-01T18:27:54.935Z,40.16
2018-03-01T18:30:23.437Z,40.20
2018-03-01T18:32:51.871Z,40.28
2018-03-01T18:35:21.192Z,40.21
2018-03-01T18:37:49.689Z,40.39
2018-03-01T18:40:18.290Z,40.50
2018-03-01T18:42:46.698Z,40.58
2018-03-01T18:45:15.188Z,40.62
2018-03-01T18:47:43.713Z,40.79
2018-03-01T18:50:12.153Z,40.66
2018-03-01T18:52:40.555Z,40.78
2018-03-01T18:55:09.130Z,40.94
2018-03-01T18:57:39.003Z,40.91
2018-03-01T19:00:08.181Z,40.97
2018-03-01T19:02:36.583Z,41.12
2018-03-01T19:05:05.053Z,41.11
2018-03-01T19:07:33.740Z,41.17
2018-03-01T19:10:02.204Z,41.15
2018-03-01T19:12:30.704Z,41.29
2018-03-01T19:14:59.277Z,41.38
2018-03-01T19:17:27.686Z,41.29
2018-03-01T19:19:56.092Z,41.47
2018-03-01T19:22:25.286Z,41.74
2018-03-01T19:24:54.573Z,41.60
2018-03-01T19:27:23.011Z,41.61
2018-03-01T19:29:51.488Z,41.86
2018-03-01T19:32:19.967Z,41.76
2018-03-01T19:34:48.400Z,41.70
2018-03-01T19:37:16.809Z,41.86
2018-03-01T19:39:45.208Z,41.88
2018-03-01T19:42:13.853Z,41.92
2018-03-01T19:44:42.385Z,41.95
2018-03-01T19:47:10.936Z,41.98
2018-03-01T19:49:40.167Z,41.76
2018-03-01T19:52:08.590Z,41.83
2018-03-01T19:54:37.048Z,41.90
2018-03-01T19:57:06.241Z,41.92
2018-03-01T19:59:34.811Z,42.12
2018-03-01T20:02:03.284Z,42.05
2018-03-01T20:04:31.805Z,42.12
2018-03-01T20:07:00.267Z,41.88
2018-03-01T20:09:28.735Z,42.16
2018-03-01T20:11:57.549Z,41.96
2018-03-01T20:14:26.181Z,42.06
2018-03-01T20:16:55.347Z,42.17
2018-03-01T20:19:23.753Z,42.23
2018-03-01T20:21:52.948Z,42.40
2018-03-01T20:24:22.154Z,42.54
2018-03-01T20:26:51.360Z,42.33
2018-03-01T20:29:20.539Z,42.46
2018-03-01T20:31:48.936Z,42.19
2018-03-01T20:34:18.139Z,42.34
2018-03-01T20:36:46.539Z,42.30
2018-03-01T20:39:15.763Z,42.35
2018-03-01T20:41:44.280Z,42.47
2018-03-01T20:44:12.708Z,42.63
2018-03-01T20:46:41.953Z,42.48
2018-03-01T20:49:10.435Z,42.36
2018-03-01T20:51:38.974Z,42.37
2018-03-01T20:54:08.200Z,42.46
2018-03-01T20:56:36.739Z,42.38
2018-03-01T20:59:05.948Z,42.41
2018-03-01T21:01:35.461Z,42.56
2018-03-01T21:04:03.920Z,42.79
2018-03-01T21:06:33.423Z,42.62
2018-03-01T21:09:01.927Z,42.51
2018-03-01T21:11:31.250Z,42.77
2018-03-01T21:13:59.731Z,42.92
2018-03-01T21:16:28.196Z,43.18
2018-03-01T21:18:57.384Z,42.98
2018-03-01T21:21:26.599Z,42.93
2018-03-01T21:23:56.029Z,42.93
2018-03-01T21:26:24.541Z,42.74
2018-03-01T21:28:54.009Z,42.89
2018-03-01T21:31:22.432Z,42.97
2018-03-01T21:33:51.152Z,43.10
2018-03-01T21:36:20.435Z,43.00
2018-03-01T21:38:49.815Z,43.13
2018-03-01T21:41:18.267Z,43.14
2018-03-01T21:43:48.413Z,43.04
2018-03-01T21:46:16.821Z,43.20
2018-03-01T21:48:45.221Z,43.29
2018-03-01T21:51:13.678Z,43.23
2018-03-01T21:53:42.105Z,43.50
2018-03-01T21:56:10.526Z,43.30
2018-03-01T21:58:39.098Z,43.13
2018-03-01T22:01:07.562Z,43.32
2018-03-01T22:03:36.387Z,43.27
2018-03-01T22:06:04.851Z,43.44
2018-03-01T22:08:33.357Z,43.58
2018-03-01T22:11:01.985Z,43.61
2018-03-01T22:13:30.445Z,43.61
2018-03-01T22:15:58.897Z,43.46
2018-03-01T22:18:28.018Z,43.57
2018-03-01T22:20:56.396Z,43.41
2018-03-01T22:23:24.795Z,43.42
2018-03-01T22:25:53.189Z,43.59
2018-03-01T22:28:21.613Z,43.85
2018-03-01T22:30:50.054Z,43.75
2018-03-01T22:33:18.496Z,43.71
2018-03-01T22:35:46.913Z,43.83
2018-03-01T22:38:15.337Z,43.78
2018-03-01T22:40:43.827Z,43.95
2018-03-01T22:43:12.297Z,44.03
2018-03-01T22:45:40.702Z,44.41
2018-03-01T22:48:09.161Z,44.33
2018-03-01T22:50:37.558Z,44.35
2018-03-01T22:53:06.000Z,43.85
2018-03-01T22:55:34.454Z,44.16
2018-03-01T22:58:03.796Z,44.03
2018-03-01T23:00:49.920Z,44.22
2018-03-01T23:03:18.488Z,44.18
2018-03-01T23:05:46.974Z,44.42
2018-03-01T23:08:15.356Z,44.40
2018-03-01T23:10:43.746Z,44.32
2018-03-01T23:13:12.168Z,44.50
2018-03-01T23:15:41.824Z,44.51
2018-03-01T23:18:10.235Z,44.65
2018-03-01T23:20:38.636Z,44.71
2018-03-01T23:23:07.867Z,44.58
2018-03-01T23:25:36.919Z,44.72
2018-03-01T23:28:05.567Z,44.82
2018-03-01T23:30:34.932Z,44.76
2018-03-01T23:33:04.371Z,44.95
2018-03-01T23:35:32.951Z,45.07
2018-03-01T23:38:01.743Z,45.17
2018-03-01T23:40:30.226Z,45.07
2018-03-01T23:42:58.632Z,45.08
2018-03-01T23:45:27.133Z,45.29
2018-03-01T23:47:57.192Z,45.39
2018-03-01T23:50:25.677Z,45.38
2018-03-01T23:52:54.068Z,45.29
2018-03-01T23:55:22.475Z,45.31
2018-03-01T23:57:50.856Z,45.29
